Latest Coastal Weather Observations for Bundaberg

IDQ60701

Issued at 10:51 am EST Sunday 23 July 2017 (issued every 10 minutes, with the page automatically refreshed every 10 minutes)

About coastal observations | Map of coastal stations | Coastal observations for QLD | Marine services | Other Formats
Station Details ID: 039128 Name: BUNDABERG AERO Lat: -24.91 Lon: 152.32 Height: 30.82 m
Data from the previous 72 hours. | See also: Recent months at Bundaberg
Date/Time
EST
Temp
°C
Wind Pressure Rain since
9am
mm
Weather Cloud Vis
km
Sea
Height
m
Swell
Dir  Spd
kts
Gust
kts
hPa Trend Height
m
Period
s
Dir
23/10:30am 21.1 S 7 9 1022.1 - 0.0 - - 10 - - - -
23/10:00am 20.6 SSW 6 7 1022.4 - 0.0 - - 10 - - - -
23/09:30am 18.9 S 7 9 1022.6 - 0.0 - - 10 - - - -
23/09:00am 17.2 SSW 6 8 1022.7 - 0.0 - Mostly clear 10 - - - -
23/08:30am 15.4 SSW 7 9 1022.6 - 0.0 - Partly cloudy 10 - - - -
23/08:00am 13.8 SW 5 8 1022.5 - 0.0 - Partly cloudy 10 - - - -
23/07:30am 12.1 SW 5 7 1022.2 - 0.0 - Partly cloudy 10 - - - -
23/07:00am 10.9 SW 5 6 1021.9 - 0.0 - Partly cloudy 10 - - - -
23/06:30am 10.1 SW 5 6 1021.7 - 0.0 - - 9 - - - -
23/06:00am 9.8 SSW 5 6 1021.5 - 0.0 - - 8 - - - -
23/05:51am 10.1 SSW 5 6 1021.4 - 0.0 - - 8 - - - -
23/05:33am 8.8 SSW 3 5 1021.3 - 0.0 - - 5 - - - -
23/05:30am 8.9 SSW 3 4 1021.2 - 0.0 - - 7 - - - -
23/05:00am 8.2 SW 5 6 1021.1 - 0.0 - - 8 - - - -
23/04:30am 8.5 SW 3 4 1020.9 - 0.0 - - 8 - - - -
23/04:00am 8.8 SW 5 6 1020.8 - 0.0 - - 7 - - - -
23/03:40am 9.9 SW 1 6 1020.8 - 0.0 - - 5 - - - -
23/03:30am 10.0 SSW 1 4 1020.9 - 0.0 - - 8 - - - -
23/03:00am 10.3 WSW 4 6 1021.0 - 0.0 - - 8 - - - -
23/02:30am 11.4 SSW 7 8 1020.9 - 0.0 - - 10 - - - -
23/02:00am 12.0 SSW 6 8 1021.1 - 0.0 - - 10 - - - -
23/01:30am 11.7 SSW 7 8 1021.4 - 0.0 - - 10 - - - -
23/01:00am 10.1 SW 4 6 1021.6 - 0.0 - - 10 - - - -
23/12:30am 10.3 SW 5 7 1021.8 - 0.0 - - 10 - - - -
23/12:00am 9.8 WSW 3 4 1021.9 - 0.0 - - 10 - - - -
 
Date/Time
EST
Temp
°C
Wind Pressure Rain since
9am
mm
Weather Cloud Vis
km
Sea
Height
m
Swell
Dir  Spd
kts
Gust
kts
hPa Trend Height
m
Period
s
Dir
22/11:30pm 9.4 SSW 3 3 1022.0 - 0.0 - - 10 - - - -
22/11:00pm 10.3 S 4 4 1022.0 - 0.0 - - 10 - - - -
22/10:30pm 10.4 CALM 0 0 1022.3 - 0.0 - - 10 - - - -
22/10:00pm 10.4 CALM 0 0 1022.3 - 0.0 - - 10 - - - -
22/09:30pm 10.7 CALM 0 0 1022.2 - 0.0 - - 10 - - - -
22/09:00pm 11.0 CALM 0 0 1022.0 - 0.0 - - 10 - - - -
22/08:30pm 11.5 CALM 0 0 1021.9 - 0.0 - - 10 - - - -
22/08:00pm 12.7 CALM 0 0 1021.8 - 0.0 - - 10 - - - -
22/07:30pm 13.4 CALM 0 0 1021.4 - 0.0 - - 10 - - - -
22/07:00pm 14.0 NE 1 4 1021.2 - 0.0 - - 10 - - - -
22/06:30pm 14.8 NE 3 4 1020.9 - 0.0 - - 10 - - - -
22/06:00pm 16.2 NE 4 6 1020.6 - 0.0 - - 10 - - - -
22/05:30pm 17.2 NE 5 6 1020.4 - 0.0 - - 10 - - - -
22/05:00pm 19.1 NE 7 9 1020.3 - 0.0 - - 10 - - - -
22/04:30pm 20.0 E 8 11 1020.1 - 0.0 - - 10 - - - -
22/04:00pm 20.5 E 8 11 1020.1 - 0.0 - - 10 - - - -
22/03:30pm 21.1 E 7 10 1020.0 - 0.0 - - 10 - - - -
22/03:00pm 21.6 ENE 7 11 1020.0 - 0.0 - - 10 - - - -
22/02:30pm 21.1 E 7 13 1020.2 - 0.0 - - 10 - - - -
22/02:00pm 22.2 ENE 9 13 1020.3 - 0.0 - Partly cloudy 10 - - - -
22/01:30pm 21.8 NE 4 7 1020.6 - 0.0 - Partly cloudy 10 - - - -
22/01:00pm 21.5 ESE 8 13 1021.1 - 0.0 - - 10 - - - -
22/12:30pm 21.8 SE 7 11 1021.4 - 0.0 - Partly cloudy 10 - - - -
22/12:00pm 21.3 E 6 14 1021.9 - 0.0 - - 10 - - - -
22/11:30am 21.1 E 5 10 1022.2 - 0.0 - - 10 - - - -
22/11:00am 20.8 E 3 6 1022.9 - 0.0 - - 10 - - - -
22/10:30am 19.8 SSE 5 7 1023.3 - 0.0 - - 10 - - - -
22/10:00am 19.6 SSW 5 8 1023.6 - 0.0 - - 10 - - - -
22/09:30am 17.7 S 6 8 1023.7 - 0.0 - - 10 - - - -
22/09:00am 15.7 SSW 6 8 1023.6 - 0.0 - - 10 - - - -
22/08:30am 14.0 S 6 8 1023.4 - 0.0 - - 10 - - - -
22/08:00am 12.1 SSW 6 8 1023.1 - 0.0 - - 10 - - - -
22/07:30am 10.3 SW 5 6 1022.8 - 0.0 - - 10 - - - -
22/07:00am 8.4 SSW 5 7 1022.5 - 0.0 - - 10 - - - -
22/06:30am 8.0 SSW 5 7 1022.2 - 0.0 - - 10 - - - -
22/06:00am 7.8 SW 5 6 1021.8 - 0.0 - - 10 - - - -
22/05:30am 7.6 SSW 5 6 1021.4 - 0.0 - - 10 - - - -
22/05:00am 8.5 SSW 5 8 1020.9 - 0.0 - - 10 - - - -
22/04:30am 9.3 SSW 7 8 1020.6 - 0.0 - - 10 - - - -
22/04:00am 9.5 SSW 7 9 1020.6 - 0.0 - - 10 - - - -
22/03:30am 9.4 SSW 6 7 1020.7 - 0.0 - - 10 - - - -
22/03:00am 9.6 SSW 7 8 1020.8 - 0.0 - - 10 - - - -
22/02:30am 9.8 SSW 7 9 1020.8 - 0.0 - - 10 - - - -
22/02:00am 9.8 SSW 8 9 1020.8 - 0.0 - - 10 - - - -
22/01:30am 9.8 SSW 8 9 1020.9 - 0.0 - - 10 - - - -
22/01:00am 9.6 SSW 9 10 1021.0 - 0.0 - - 10 - - - -
22/12:30am 9.6 SSW 9 10 1021.2 - 0.0 - - 10 - - - -
22/12:00am 9.4 SSW 9 10 1021.3 - 0.0 - - 10 - - - -
 
Date/Time
EST
Temp
°C
Wind Pressure Rain since
9am
mm
Weather Cloud Vis
km
Sea
Height
m
Swell
Dir  Spd
kts
Gust
kts
hPa Trend Height
m
Period
s
Dir
21/11:30pm 9.4 S 8 9 1021.3 - 0.0 - - 10 - - - -
21/11:00pm 10.1 S 6 8 1021.3 - 0.0 - - 10 - - - -
21/10:30pm 8.7 S 4 6 1021.3 - 0.0 - - 10 - - - -
21/10:00pm 8.8 S 5 6 1021.3 - 0.0 - - 10 - - - -
21/09:30pm 8.4 SSE 4 5 1021.2 - 0.0 - - 10 - - - -
21/09:00pm 9.0 SE 3 5 1020.8 - 0.0 - - 10 - - - -
21/08:30pm 9.7 CALM 0 0 1020.4 - 0.0 - - 10 - - - -
21/08:00pm 11.3 CALM 0 0 1020.0 - 0.0 - - 10 - - - -
21/07:30pm 12.0 CALM 0 0 1019.6 - 0.0 - - 10 - - - -
21/07:00pm 11.8 CALM 0 0 1019.2 - 0.0 - - 10 - - - -
21/06:30pm 12.3 CALM 0 4 1018.8 - 0.0 - - 10 - - - -
21/06:00pm 15.6 ESE 3 4 1018.4 - 0.0 - - 10 - - - -
21/05:30pm 15.6 E 6 7 1017.8 - 0.0 - - 10 - - - -
21/05:00pm 19.5 SW 5 8 1017.4 - 0.0 - - 10 - - - -
21/04:30pm 21.1 SW 7 10 1017.0 - 0.0 - - 10 - - - -
21/04:00pm 21.7 SSW 8 11 1016.7 - 0.0 - - 10 - - - -
21/03:30pm 22.1 SW 8 11 1016.4 - 0.0 - - 10 - - - -
21/03:00pm 21.9 SSW 10 15 1016.4 - 0.0 - - 10 - - - -
21/02:30pm 21.9 SSW 9 15 1016.5 - 0.0 - - 10 - - - -
21/02:00pm 21.8 SW 10 13 1017.0 - 0.0 - - 10 - - - -
21/01:30pm 21.4 SW 10 15 1017.3 - 0.0 - - 10 - - - -
21/01:00pm 20.8 SW 11 15 1017.8 - 0.0 - - 10 - - - -
21/12:30pm 20.8 SW 11 15 1018.4 - 0.0 - - 10 - - - -
21/12:00pm 20.2 SW 10 15 1018.9 - 0.0 - - 10 - - - -
21/11:30am 19.2 WSW 8 13 1019.4 - 0.0 - - 10 - - - -
21/11:00am 18.6 SW 7 11 1019.9 - 0.0 - - 10 - - - -
21/10:30am 17.7 SW 9 14 1020.0 - 0.0 - - 10 - - - -
21/10:00am 16.1 SW 9 15 1020.3 - 0.0 - - 10 - - - -
21/09:30am 14.4 SW 11 15 1020.3 - 0.0 - - 10 - - - -
21/09:00am 13.6 SW 9 14 1020.1 - 0.0 - - 10 - - - -
21/08:30am 12.1 WSW 7 11 1020.2 - 0.0 - - 10 - - - -
21/08:00am 10.4 WSW 6 9 1020.1 - 0.0 - - 10 - - - -
21/07:30am 8.6 W 6 8 1019.6 - 0.0 - - 10 - - - -
21/07:00am 7.4 WSW 7 8 1019.3 - 0.0 - - 10 - - - -
21/06:30am 6.6 WSW 6 7 1018.7 - 0.0 - - 10 - - - -
21/06:00am 5.2 W 4 5 1018.5 - 0.0 - - 10 - - - -
21/05:30am 5.5 W 5 6 1018.6 - 0.0 - - 10 - - - -
21/05:00am 5.8 W 7 8 1018.3 - 0.0 - - 10 - - - -
21/04:30am 5.6 W 7 8 1018.1 - 0.0 - - 10 - - - -
21/04:00am 7.0 W 6 7 1018.0 - 0.0 - - 10 - - - -
21/03:30am 6.4 W 5 6 1017.6 - 0.0 - - 10 - - - -
21/03:00am 9.0 WSW 6 7 1017.4 - 0.0 - - 10 - - - -
21/02:30am 9.9 SW 7 8 1017.2 - 0.0 - - 10 - - - -
21/02:00am 10.0 WSW 7 9 1017.3 - 0.0 - - 10 - - - -
21/01:30am 7.7 WSW 7 8 1017.6 - 0.0 - - 10 - - - -
21/01:00am 8.1 WSW 7 7 1017.8 - 0.0 - - 10 - - - -
21/12:30am 10.3 WSW 7 9 1017.8 - 0.0 - - 10 - - - -
21/12:00am 10.8 WSW 8 10 1017.6 - 0.0 - - 10 - - - -
 
Date/Time
EST
Temp
°C
Wind Pressure Rain since
9am
mm
Weather Cloud Vis
km
Sea
Height
m
Swell
Dir  Spd
kts
Gust
kts
hPa Trend Height
m
Period
s
Dir
20/11:30pm 10.7 WSW 6 7 1017.6 - 0.0 - - 10 - - - -
20/11:00pm 10.9 WSW 5 6 1017.7 - 0.0 - - 10 - - - -
20/10:30pm 12.3 W 3 4 1017.8 - 0.0 - - 10 - - - -
20/10:00pm 12.6 SW 6 7 1017.6 - 0.0 - - 10 - - - -
20/09:30pm 11.9 WSW 5 6 1017.8 - 0.0 - - 10 - - - -
20/09:00pm 12.8 W 4 5 1018.0 - 0.0 - - 10 - - - -
20/08:30pm 13.4 SW 5 6 1017.7 - 0.0 - - 10 - - - -
20/08:00pm 12.3 SW 3 7 1017.7 - 0.0 - - 10 - - - -
20/07:30pm 14.1 W 3 4 1017.7 - 0.0 - - 10 - - - -
20/07:00pm 11.9 W 4 5 1017.2 - 0.0 - - 10 - - - -
20/06:30pm 15.5 WSW 4 5 1016.8 - 0.0 - - 10 - - - -
20/06:00pm 15.3 WSW 6 6 1016.3 - 0.0 - - 10 - - - -
20/05:30pm 17.5 SW 5 6 1015.9 - 0.0 - - 10 - - - -
20/05:00pm 19.3 SW 8 12 1015.3 - 0.0 - - 10 - - - -
20/04:30pm 20.4 SW 8 12 1015.1 - 0.0 - - 10 - - - -
20/04:00pm 20.7 SSW 11 15 1015.1 - 0.0 - - 10 - - - -
20/03:30pm 21.0 SSW 10 15 1015.0 - 0.0 - - 10 - - - -
20/03:00pm 21.4 SW 10 17 1015.3 - 0.0 - - 10 - - - -
20/02:30pm 21.3 SSW 10 15 1015.2 - 0.0 - - 10 - - - -
20/02:00pm 21.1 SW 9 14 1015.5 - 0.0 - - 10 - - - -
20/01:30pm 21.1 SW 10 17 1015.9 - 0.0 - - 10 - - - -
20/01:00pm 20.6 SW 9 14 1016.6 - 0.0 - - 10 - - - -
20/12:30pm 19.5 SW 10 15 1017.2 - 0.0 - - 10 - - - -
20/12:00pm 19.0 WSW 10 14 1017.7 - 0.0 - - 10 - - - -
20/11:30am 18.5 SW 10 15 1018.2 - 0.0 - - 10 - - - -
20/11:00am 18.1 SSW 10 17 1018.4 - 0.0 - - 10 - - - -

Other Formats:

Comma delimited format used in spreadsheet applications
http://www.bom.gov.au/fwo/IDQ60701/IDQ60701.94387.axf

JavaScript Object Notation format (JSON) in row-major order
http://www.bom.gov.au/fwo/IDQ60701/IDQ60701.94387.json